createdAt,value
2022-09-26T00:01:18.944Z,100391.43
2022-09-26T00:03:48.391Z,100393.34
2022-09-26T00:06:17.567Z,100391.93
2022-09-26T00:08:45.392Z,100388.33
2022-09-26T00:11:13.473Z,100384.36
2022-09-26T00:13:40.834Z,100386.39
2022-09-26T00:16:09.187Z,100385.90
2022-09-26T00:18:38.838Z,100384.17
2022-09-26T00:21:12.928Z,100383.71
2022-09-26T00:23:41.480Z,100378.42
2022-09-26T00:26:08.402Z,100374.37
2022-09-26T00:28:35.247Z,100372.77
2022-09-26T00:31:10.150Z,100370.99
2022-09-26T00:33:37.553Z,100368.35
2022-09-26T00:36:05.222Z,100365.41
2022-09-26T00:38:32.478Z,100364.48
2022-09-26T00:40:59.565Z,100369.82
2022-09-26T00:43:41.424Z,100367.33
2022-09-26T00:46:21.075Z,100366.51
2022-09-26T00:48:53.173Z,100367.45
2022-09-26T00:51:19.942Z,100368.08
2022-09-26T00:53:48.668Z,100370.08
2022-09-26T00:56:22.426Z,100368.11
2022-09-26T00:58:54.912Z,100368.14
2022-09-26T01:01:21.856Z,100358.63
2022-09-26T01:03:48.709Z,100353.14
2022-09-26T01:06:16.076Z,100345.42
2022-09-26T01:09:08.237Z,100347.27
2022-09-26T01:11:35.996Z,100339.86
2022-09-26T01:14:03.976Z,100337.52
2022-09-26T01:16:31.793Z,100335.41
2022-09-26T01:19:00.544Z,100331.28
2022-09-26T01:21:43.671Z,100330.28
2022-09-26T01:24:58.655Z,100329.92
2022-09-26T01:27:44.443Z,100328.91
2022-09-26T01:30:21.259Z,100332.11
2022-09-26T01:33:36.825Z,100327.71
2022-09-26T01:36:19.345Z,100325.80
2022-09-26T01:38:58.999Z,100322.41
2022-09-26T01:41:53.497Z,100317.48
2022-09-26T01:44:47.887Z,100319.38
2022-09-26T01:47:24.104Z,100319.36
2022-09-26T01:50:00.927Z,100316.86
2022-09-26T01:52:28.976Z,100314.70
2022-09-26T01:55:08.153Z,100316.28
2022-09-26T01:58:09.507Z,100312.98
2022-09-26T02:00:38.202Z,100308.05
2022-09-26T02:03:06.065Z,100311.90
2022-09-26T02:05:44.273Z,100310.64
2022-09-26T02:08:26.886Z,100310.73
2022-09-26T02:11:01.726Z,100308.30
2022-09-26T02:13:31.228Z,100303.29
2022-09-26T02:16:02.505Z,100297.13
2022-09-26T02:18:47.832Z,100290.44
2022-09-26T02:21:20.447Z,100287.39
2022-09-26T02:23:48.316Z,100287.02
2022-09-26T02:26:15.374Z,100282.58
2022-09-26T02:28:42.325Z,100280.52
2022-09-26T02:31:09.066Z,100282.76
2022-09-26T02:33:36.629Z,100283.83
2022-09-26T02:36:05.981Z,100283.05
2022-09-26T02:38:34.063Z,100277.89
2022-09-26T02:41:27.884Z,100280.22
2022-09-26T02:44:17.461Z,100281.02
2022-09-26T02:47:25.984Z,100283.39
2022-09-26T02:49:59.449Z,100280.54
2022-09-26T02:52:41.381Z,100279.12
2022-09-26T02:55:35.979Z,100276.84
2022-09-26T02:58:03.538Z,100277.41
2022-09-26T03:00:51.516Z,100272.90
2022-09-26T03:03:22.054Z,100271.98
2022-09-26T03:05:48.955Z,100267.83
2022-09-26T03:08:21.474Z,100263.46
2022-09-26T03:10:48.787Z,100262.94
2022-09-26T03:13:16.866Z,100262.52
2022-09-26T03:15:46.990Z,100260.55
2022-09-26T03:18:16.530Z,100259.38
2022-09-26T03:20:44.066Z,100255.62
2022-09-26T03:23:10.920Z,100250.17
2022-09-26T03:25:38.993Z,100250.80
2022-09-26T03:28:06.455Z,100245.72
2022-09-26T03:30:34.188Z,100238.10
2022-09-26T03:33:03.019Z,100237.42
2022-09-26T03:35:30.379Z,100236.41
2022-09-26T03:37:57.841Z,100234.39
2022-09-26T03:40:25.267Z,100231.26
2022-09-26T03:42:52.459Z,100231.19
2022-09-26T03:45:20.624Z,100228.52
2022-09-26T03:47:47.996Z,100226.80
2022-09-26T03:50:16.501Z,100226.25
2022-09-26T03:52:43.642Z,100222.25
2022-09-26T03:55:11.108Z,100221.50
2022-09-26T03:57:38.264Z,100221.56
2022-09-26T04:00:07.330Z,100219.58
2022-09-26T04:02:35.419Z,100218.32
2022-09-26T04:05:03.425Z,100215.80
2022-09-26T04:07:30.377Z,100211.91
2022-09-26T04:09:57.938Z,100211.91
2022-09-26T04:12:25.191Z,100211.47
2022-09-26T04:15:07.297Z,100208.67
2022-09-26T04:17:36.294Z,100210.97
2022-09-26T04:20:04.269Z,100219.09
2022-09-26T04:22:31.423Z,100219.18
2022-09-26T04:24:58.064Z,100218.75
2022-09-26T04:27:29.421Z,100217.41
2022-09-26T04:29:57.086Z,100215.22
2022-09-26T04:32:24.441Z,100210.05
2022-09-26T04:34:51.397Z,100209.97
2022-09-26T04:37:20.484Z,100216.27
2022-09-26T04:39:48.351Z,100222.52
2022-09-26T04:42:15.144Z,100221.35
2022-09-26T04:44:42.959Z,100218.90
2022-09-26T04:47:10.826Z,100218.05
2022-09-26T04:49:37.572Z,100217.02
2022-09-26T04:52:05.744Z,100213.05
2022-09-26T04:54:36.885Z,100220.55
2022-09-26T04:57:04.239Z,100216.97
2022-09-26T04:59:30.984Z,100217.69
2022-09-26T05:01:57.878Z,100219.11
2022-09-26T05:04:27.845Z,100219.58
2022-09-26T05:06:55.405Z,100218.02
2022-09-26T05:09:22.767Z,100216.48
2022-09-26T05:11:49.507Z,100215.51
2022-09-26T05:14:18.405Z,100211.54
2022-09-26T05:16:46.794Z,100200.92
2022-09-26T05:19:13.730Z,100199.39
2022-09-26T05:21:42.733Z,100197.17
2022-09-26T05:24:28.941Z,100195.61
2022-09-26T05:26:56.498Z,100197.45
2022-09-26T05:29:23.449Z,100202.14
2022-09-26T05:31:53.640Z,100201.09
2022-09-26T05:34:20.729Z,100201.84
2022-09-26T05:36:48.705Z,100199.95
2022-09-26T05:39:37.815Z,100197.15
2022-09-26T05:42:08.814Z,100197.63
2022-09-26T05:44:38.627Z,100202.45
2022-09-26T05:47:06.778Z,100210.32
2022-09-26T05:49:35.379Z,100208.85
2022-09-26T05:52:03.469Z,100213.09
2022-09-26T05:54:30.594Z,100207.06
2022-09-26T05:56:57.462Z,100200.27
2022-09-26T05:59:24.406Z,100187.73
2022-09-26T06:01:52.650Z,100181.56
2022-09-26T06:04:20.882Z,100178.73
2022-09-26T06:06:50.771Z,100180.17
2022-09-26T06:09:17.715Z,100182.73
2022-09-26T06:11:45.070Z,100179.84
2022-09-26T06:14:13.704Z,100171.85
2022-09-26T06:16:42.000Z,100171.27
2022-09-26T06:19:09.665Z,100174.41
2022-09-26T06:21:39.415Z,100180.31
2022-09-26T06:24:06.438Z,100181.07
2022-09-26T06:26:33.609Z,100175.63
2022-09-26T06:29:01.176Z,100175.15
2022-09-26T06:31:31.630Z,100178.98
2022-09-26T06:34:01.096Z,100182.65
2022-09-26T06:36:27.948Z,100181.43
2022-09-26T06:38:55.364Z,100181.48
2022-09-26T06:41:23.188Z,100179.85
2022-09-26T06:43:51.042Z,100176.90
2022-09-26T06:46:18.269Z,100173.46
2022-09-26T06:48:46.165Z,100166.16
2022-09-26T06:51:13.730Z,100161.45
2022-09-26T06:53:42.116Z,100166.17
2022-09-26T06:56:09.263Z,100174.36
2022-09-26T06:58:36.728Z,100180.71
2022-09-26T07:01:06.026Z,100175.86
2022-09-26T07:03:33.693Z,100169.83
2022-09-26T07:06:00.334Z,100160.39
2022-09-26T07:08:50.404Z,100156.58
2022-09-26T07:11:42.108Z,100153.84
2022-09-26T07:14:04.493Z,100153.34
2022-09-26T07:16:31.797Z,100149.08
2022-09-26T07:18:58.902Z,100148.16
2022-09-26T07:21:26.151Z,100147.05
2022-09-26T07:23:57.551Z,100148.48
2022-09-26T07:26:24.958Z,100146.80
2022-09-26T07:28:54.794Z,100148.27
2022-09-26T07:31:23.210Z,100159.65
2022-09-26T07:33:49.998Z,100165.40
2022-09-26T07:36:17.965Z,100166.25
2022-09-26T07:38:49.006Z,100161.30
2022-09-26T07:41:16.462Z,100156.51
2022-09-26T07:46:50.645Z,100142.87
2022-09-26T07:49:37.708Z,100135.69
2022-09-26T07:52:04.653Z,100131.60
2022-09-26T07:54:31.906Z,100132.17
2022-09-26T07:56:59.464Z,100133.91
2022-09-26T07:59:27.740Z,100134.00
2022-09-26T08:01:54.396Z,100131.16
2022-09-26T08:04:21.321Z,100132.16
2022-09-26T08:06:49.597Z,100129.79
2022-09-26T08:09:17.774Z,100125.49
2022-09-26T08:11:44.922Z,100126.30
2022-09-26T08:14:12.987Z,100126.87
2022-09-26T08:16:41.386Z,100126.57
2022-09-26T08:19:08.533Z,100124.15
2022-09-26T08:21:35.379Z,100119.08
2022-09-26T08:24:03.551Z,100114.52
2022-09-26T08:26:31.117Z,100118.47
2022-09-26T08:28:59.476Z,100116.81
2022-09-26T08:31:26.458Z,100110.40
2022-09-26T08:33:53.398Z,100101.02
2022-09-26T08:36:20.464Z,100102.09
2022-09-26T08:38:49.767Z,100104.55
2022-09-26T08:41:32.391Z,100098.94
2022-09-26T08:44:09.917Z,100092.41
2022-09-26T08:47:05.970Z,100095.37
2022-09-26T08:50:09.362Z,100091.48
2022-09-26T08:52:46.763Z,100088.18
2022-09-26T08:55:20.425Z,100087.40
2022-09-26T08:57:48.603Z,100089.72
2022-09-26T09:00:20.683Z,100081.60
2022-09-26T09:02:52.537Z,100077.21
2022-09-26T09:05:26.672Z,100075.14
2022-09-26T09:07:55.152Z,100070.67
2022-09-26T09:10:37.876Z,100061.59
2022-09-26T09:13:34.527Z,100062.27
2022-09-26T09:16:39.517Z,100064.52
2022-09-26T09:19:32.738Z,100063.94
2022-09-26T09:22:06.556Z,100065.70
2022-09-26T09:24:34.234Z,100067.45
2022-09-26T09:30:44.738Z,100066.48
2022-09-26T09:33:17.480Z,100067.54
2022-09-26T09:36:10.383Z,100068.81
2022-09-26T09:38:38.661Z,100067.92
2022-09-26T09:41:13.699Z,100072.46
2022-09-26T09:43:47.819Z,100073.17
2022-09-26T09:46:40.325Z,100071.02
2022-09-26T09:49:07.219Z,100067.36
2022-09-26T09:51:58.751Z,100065.45
2022-09-26T09:54:41.655Z,100069.09
2022-09-26T09:57:34.006Z,100053.52
2022-09-26T10:00:21.849Z,100049.58
2022-09-26T10:03:02.232Z,100044.67
2022-09-26T10:05:44.675Z,100041.33
2022-09-26T10:08:22.209Z,100043.70
2022-09-26T10:11:25.822Z,100036.85
2022-09-26T10:13:55.025Z,100025.91
2022-09-26T10:16:23.213Z,100020.86
2022-09-26T10:19:03.910Z,100009.27
2022-09-26T10:21:33.653Z,100011.20
2022-09-26T10:24:04.227Z,100006.08
2022-09-26T10:26:38.998Z,99996.39
2022-09-26T10:29:20.753Z,99985.36
2022-09-26T10:31:48.622Z,99979.20
2022-09-26T10:34:24.375Z,99980.04
2022-09-26T10:36:52.649Z,99974.23
2022-09-26T10:39:39.975Z,99978.41
2022-09-26T10:42:15.204Z,99977.67
2022-09-26T10:44:42.569Z,99982.79
2022-09-26T10:47:13.609Z,99978.73
2022-09-26T10:50:21.616Z,99981.13
2022-09-26T10:53:16.791Z,99980.63
2022-09-26T10:55:48.999Z,99978.38
2022-09-26T10:58:23.409Z,99983.23
2022-09-26T11:00:51.414Z,99981.74
2022-09-26T11:03:43.199Z,99970.36
2022-09-26T11:06:26.950Z,99972.33
2022-09-26T11:08:57.857Z,99963.11
2022-09-26T11:11:27.393Z,99952.89
2022-09-26T11:14:02.939Z,99945.21
2022-09-26T11:16:48.728Z,99946.92
2022-09-26T11:19:39.018Z,99943.61
2022-09-26T11:22:41.088Z,99943.41
2022-09-26T11:25:26.676Z,99949.73
2022-09-26T11:28:21.670Z,99944.08
2022-09-26T11:30:48.537Z,99945.70
2022-09-26T11:33:18.322Z,99938.20
2022-09-26T11:35:49.310Z,99937.94
2022-09-26T11:38:26.855Z,99928.13
2022-09-26T11:41:10.899Z,99916.93
2022-09-26T11:43:52.691Z,99899.09
2022-09-26T11:46:46.927Z,99900.64
2022-09-26T11:49:15.456Z,99903.78
2022-09-26T11:51:51.817Z,99904.62
2022-09-26T11:54:34.812Z,99908.55
2022-09-26T11:57:40.671Z,99910.48
2022-09-26T12:00:11.510Z,99898.31
2022-09-26T12:03:06.532Z,99888.88
2022-09-26T12:05:45.055Z,99882.90
2022-09-26T12:08:18.656Z,99884.52
2022-09-26T12:11:14.776Z,99896.77
2022-09-26T12:14:16.003Z,99905.58
2022-09-26T12:16:58.086Z,99907.28
2022-09-26T12:19:36.127Z,99898.17
2022-09-26T12:22:28.058Z,99888.85
2022-09-26T12:25:20.449Z,99889.42
2022-09-26T12:28:00.456Z,99885.77
2022-09-26T12:30:54.799Z,99877.36
2022-09-26T12:33:43.089Z,99882.44
2022-09-26T12:36:39.934Z,99885.68
2022-09-26T12:39:12.771Z,99888.80
2022-09-26T12:41:51.336Z,99890.70
2022-09-26T12:44:43.783Z,99892.21
2022-09-26T12:47:52.435Z,99892.27
2022-09-26T12:50:24.367Z,99894.12
2022-09-26T12:52:54.080Z,99903.40
2022-09-26T12:55:52.563Z,99907.06
2022-09-26T12:58:19.609Z,99904.43
2022-09-26T13:01:11.679Z,99903.09
2022-09-26T13:03:38.996Z,99909.10
2022-09-26T13:06:27.350Z,99901.26
2022-09-26T13:09:32.279Z,99894.06
2022-09-26T13:12:20.730Z,99895.86
2022-09-26T13:15:24.850Z,99904.14
2022-09-26T13:18:04.490Z,99907.23
2022-09-26T13:20:54.788Z,99903.36
2022-09-26T13:23:26.748Z,99910.77
2022-09-26T13:25:55.038Z,99918.47
2022-09-26T13:28:23.612Z,99917.17
2022-09-26T13:31:01.327Z,99917.89
2022-09-26T13:33:35.570Z,99901.30
2022-09-26T13:36:03.299Z,99886.19
2022-09-26T13:38:35.056Z,99886.23
2022-09-26T13:41:21.870Z,99884.20
2022-09-26T13:43:53.019Z,99869.59
2022-09-26T13:46:22.578Z,99851.30
2022-09-26T13:49:00.276Z,99837.82
2022-09-26T13:51:49.728Z,99831.73
2022-09-26T13:54:30.168Z,99827.61
2022-09-26T13:56:56.908Z,99832.45
2022-09-26T13:59:31.842Z,99844.55
2022-09-26T14:02:19.210Z,99852.59
2022-09-26T14:04:48.069Z,99860.90
2022-09-26T14:07:35.286Z,99858.83
2022-09-26T14:10:02.135Z,99862.20
2022-09-26T14:12:33.378Z,99858.38
2022-09-26T14:15:15.793Z,99865.48
2022-09-26T14:17:42.636Z,99864.53
2022-09-26T14:20:27.579Z,99865.40
2022-09-26T14:22:56.307Z,99860.76
2022-09-26T14:25:45.776Z,99858.95
2022-09-26T14:28:32.337Z,99853.09
2022-09-26T14:31:21.711Z,99843.41
2022-09-26T14:33:50.340Z,99843.42
2022-09-26T14:36:28.488Z,99845.29
2022-09-26T14:38:56.322Z,99850.58
2022-09-26T14:41:30.149Z,99848.70
2022-09-26T14:44:03.250Z,99847.71
2022-09-26T14:46:32.927Z,99849.29
2022-09-26T14:49:02.650Z,99852.72
2022-09-26T14:51:36.595Z,99856.91
2022-09-26T14:54:31.471Z,99847.36
2022-09-26T14:57:03.745Z,99839.55
2022-09-26T14:59:33.458Z,99836.80
2022-09-26T15:02:25.539Z,99842.39
2022-09-26T15:04:59.428Z,99849.61
2022-09-26T15:07:27.074Z,99839.70
2022-09-26T15:10:07.161Z,99839.96
2022-09-26T15:12:39.306Z,99836.20
2022-09-26T15:15:26.907Z,99837.98
2022-09-26T15:17:57.522Z,99835.59
2022-09-26T15:20:24.934Z,99840.66
2022-09-26T15:22:52.295Z,99846.08
2022-09-26T15:25:22.967Z,99848.53
2022-09-26T15:27:53.523Z,99842.77
2022-09-26T15:30:23.763Z,99839.05
2022-09-26T15:32:57.089Z,99839.80
2022-09-26T15:35:26.292Z,99838.55
2022-09-26T15:38:00.107Z,99839.05
2022-09-26T15:40:29.315Z,99843.48
2022-09-26T15:43:02.487Z,99841.26
2022-09-26T15:45:45.920Z,99838.23
2022-09-26T15:48:19.216Z,99845.40
2022-09-26T15:50:48.660Z,99852.36
2022-09-26T15:53:21.713Z,99858.86
2022-09-26T15:55:55.713Z,99860.05
2022-09-26T15:58:46.542Z,99857.94
2022-09-26T16:01:15.658Z,99851.66
2022-09-26T16:03:58.869Z,99847.94
2022-09-26T16:06:35.893Z,99854.02
2022-09-26T16:09:34.147Z,99855.91
2022-09-26T16:12:04.196Z,99853.24
2022-09-26T16:14:46.268Z,99849.38
2022-09-26T16:17:18.589Z,99841.77
2022-09-26T16:20:02.191Z,99839.20
2022-09-26T16:22:35.803Z,99844.72
2022-09-26T16:25:55.883Z,99836.05
2022-09-26T16:28:41.564Z,99836.14
2022-09-26T16:31:14.399Z,99841.92
2022-09-26T16:33:41.963Z,99843.10
2022-09-26T16:36:14.582Z,99844.44
2022-09-26T16:38:41.732Z,99844.85
2022-09-26T16:41:56.164Z,99848.98
2022-09-26T16:44:26.164Z,99849.24
2022-09-26T16:46:58.475Z,99856.83
2022-09-26T16:49:47.851Z,99852.19
2022-09-26T16:52:28.110Z,99849.31
2022-09-26T16:55:00.021Z,99849.02
2022-09-26T16:57:28.953Z,99851.37
2022-09-26T17:00:23.133Z,99850.39
2022-09-26T17:02:50.348Z,99851.67
2022-09-26T17:05:20.399Z,99846.93
2022-09-26T17:07:48.524Z,99845.88
2022-09-26T17:10:17.190Z,99845.39
2022-09-26T17:12:51.077Z,99839.21
2022-09-26T17:15:27.579Z,99841.23
2022-09-26T17:17:57.350Z,99845.35
2022-09-26T17:20:24.092Z,99851.77
2022-09-26T17:22:51.345Z,99851.12
2022-09-26T17:25:18.641Z,99852.48
2022-09-26T17:27:47.075Z,99848.29
2022-09-26T17:30:16.606Z,99844.80
2022-09-26T17:32:49.130Z,99845.15
2022-09-26T17:35:27.171Z,99850.64
2022-09-26T17:37:55.787Z,99844.91
2022-09-26T17:40:25.658Z,99840.16
2022-09-26T17:42:54.656Z,99840.49
2022-09-26T17:45:25.452Z,99844.29
2022-09-26T17:47:52.724Z,99845.70
2022-09-26T17:50:25.213Z,99838.62
2022-09-26T17:52:53.674Z,99836.55
2022-09-26T17:55:21.190Z,99835.20
2022-09-26T17:57:48.708Z,99835.29
2022-09-26T18:00:17.504Z,99834.19
2022-09-26T18:02:56.160Z,99837.55
2022-09-26T18:05:42.640Z,99838.71
2022-09-26T18:08:15.745Z,99837.13
2022-09-26T18:10:49.036Z,99836.73
2022-09-26T18:13:16.514Z,99836.02
2022-09-26T18:15:44.510Z,99836.77
2022-09-26T18:18:14.313Z,99838.76
2022-09-26T18:20:40.961Z,99838.84
2022-09-26T18:23:07.813Z,99835.27
2022-09-26T18:25:36.816Z,99837.16
2022-09-26T18:28:06.130Z,99839.69
2022-09-26T18:30:42.741Z,99843.27
2022-09-26T18:33:11.097Z,99840.36
2022-09-26T18:35:40.117Z,99838.14
2022-09-26T18:38:07.154Z,99838.40
2022-09-26T18:40:37.663Z,99840.03
2022-09-26T18:43:05.263Z,99840.70
2022-09-26T18:45:36.309Z,99836.23
2022-09-26T18:48:10.562Z,99832.19
2022-09-26T18:50:39.022Z,99832.91
2022-09-26T18:53:19.610Z,99834.58
2022-09-26T18:56:05.701Z,99830.48
2022-09-26T18:58:33.377Z,99828.14
2022-09-26T19:01:08.448Z,99822.79
2022-09-26T19:03:36.597Z,99819.77
2022-09-26T19:06:11.439Z,99812.92
2022-09-26T19:08:45.868Z,99814.15
2022-09-26T19:11:20.437Z,99815.28
2022-09-26T19:13:49.092Z,99817.64
2022-09-26T19:16:16.509Z,99817.98
2022-09-26T19:18:45.375Z,99813.86
2022-09-26T19:21:51.850Z,99811.21
2022-09-26T19:24:28.432Z,99806.78
2022-09-26T19:26:58.649Z,99798.27
2022-09-26T19:29:38.451Z,99797.76
2022-09-26T19:32:05.850Z,99794.99
2022-09-26T19:34:33.060Z,99791.14
2022-09-26T19:37:02.486Z,99790.27
2022-09-26T19:39:29.522Z,99788.58
2022-09-26T19:41:56.377Z,99786.88
2022-09-26T19:44:24.247Z,99785.74
2022-09-26T19:46:51.407Z,99785.55
2022-09-26T19:49:19.284Z,99786.98
2022-09-26T19:51:46.243Z,99797.52
2022-09-26T19:54:17.531Z,99792.64
2022-09-26T19:56:46.193Z,99796.60
2022-09-26T19:59:13.559Z,99798.22
2022-09-26T20:01:41.682Z,99798.81
2022-09-26T20:04:14.132Z,99797.53
2022-09-26T20:06:41.498Z,99797.89
2022-09-26T20:09:18.692Z,99796.86
2022-09-26T20:11:46.370Z,99793.65
2022-09-26T20:14:25.510Z,99792.57
2022-09-26T20:16:54.917Z,99790.05
2022-09-26T20:19:27.874Z,99787.84
2022-09-26T20:21:59.283Z,99783.90
2022-09-26T20:24:26.236Z,99779.90
2022-09-26T20:26:53.193Z,99778.96
2022-09-26T20:29:19.942Z,99775.39
2022-09-26T20:31:47.818Z,99773.19
2022-09-26T20:34:16.721Z,99777.34
2022-09-26T20:36:46.120Z,99774.80
2022-09-26T20:39:31.624Z,99771.10
2022-09-26T20:41:58.578Z,99769.39
2022-09-26T20:44:27.857Z,99768.95
2022-09-26T20:46:57.089Z,99767.55
2022-09-26T20:49:27.899Z,99769.84
2022-09-26T20:51:54.590Z,99770.38
2022-09-26T20:54:32.092Z,99770.04
2022-09-26T20:57:00.792Z,99770.13
2022-09-26T20:59:28.672Z,99768.20
2022-09-26T21:01:57.057Z,99760.38
2022-09-26T21:04:29.438Z,99752.61
2022-09-26T21:06:56.703Z,99747.63
2022-09-26T21:09:24.375Z,99744.61
2022-09-26T21:11:52.045Z,99740.86
2022-09-26T21:14:19.208Z,99740.30
2022-09-26T21:16:50.855Z,99742.88
2022-09-26T21:19:20.803Z,99740.88
2022-09-26T21:21:47.445Z,99743.52
2022-09-26T21:24:24.165Z,99741.23
2022-09-26T21:26:51.769Z,99739.89
2022-09-26T21:29:18.714Z,99733.00
2022-09-26T21:31:51.241Z,99730.84
2022-09-26T21:34:23.010Z,99726.40
2022-09-26T21:36:51.094Z,99716.34
2022-09-26T21:39:18.595Z,99711.20
2022-09-26T21:41:49.309Z,99708.16
2022-09-26T21:44:18.829Z,99703.33
2022-09-26T21:46:45.685Z,99698.46
2022-09-26T21:49:13.664Z,99691.28
2022-09-26T21:51:40.617Z,99683.65
2022-09-26T21:54:16.866Z,99679.64
2022-09-26T21:56:49.369Z,99680.46
2022-09-26T21:59:18.864Z,99680.90
2022-09-26T22:01:47.519Z,99684.20
2022-09-26T22:04:14.530Z,99681.42
2022-09-26T22:06:41.786Z,99679.80
2022-09-26T22:09:08.652Z,99676.52
2022-09-26T22:11:36.396Z,99674.02
2022-09-26T22:14:04.577Z,99667.98
2022-09-26T22:16:31.766Z,99662.30
2022-09-26T22:18:58.685Z,99657.80
2022-09-26T22:21:25.735Z,99654.78
2022-09-26T22:23:52.705Z,99652.85
2022-09-26T22:26:21.071Z,99654.27
2022-09-26T22:28:48.626Z,99658.73
2022-09-26T22:31:16.135Z,99650.34
2022-09-26T22:33:43.554Z,99645.80
2022-09-26T22:36:10.466Z,99643.67
2022-09-26T22:38:38.889Z,99647.66
2022-09-26T22:41:06.654Z,99647.36
2022-09-26T22:43:33.910Z,99645.73
2022-09-26T22:46:08.006Z,99632.09
2022-09-26T22:48:36.003Z,99622.73
2022-09-26T22:51:04.179Z,99624.30
2022-09-26T22:53:32.056Z,99623.36
2022-09-26T22:56:04.634Z,99622.75
2022-09-26T22:58:35.986Z,99617.17
2022-09-26T23:01:09.956Z,99616.05
2022-09-26T23:03:37.563Z,99623.33
2022-09-26T23:06:05.330Z,99626.00
2022-09-26T23:08:33.609Z,99621.32
2022-09-26T23:11:01.996Z,99619.88
2022-09-26T23:13:31.401Z,99618.36
2022-09-26T23:16:09.613Z,99623.86
2022-09-26T23:18:38.507Z,99621.03
2022-09-26T23:21:18.458Z,99619.23
2022-09-26T23:23:48.172Z,99620.45
2022-09-26T23:26:26.492Z,99621.70
2022-09-26T23:28:54.032Z,99617.76
2022-09-26T23:31:21.269Z,99612.72
2022-09-26T23:33:48.566Z,99608.60
2022-09-26T23:36:15.517Z,99605.52
2022-09-26T23:38:42.979Z,99597.86
2022-09-26T23:41:10.645Z,99595.73
2022-09-26T23:43:38.308Z,99593.75
2022-09-26T23:46:06.168Z,99591.44
2022-09-26T23:48:33.263Z,99597.45
2022-09-26T23:51:02.023Z,99597.01
2022-09-26T23:53:29.274Z,99603.87
2022-09-26T23:56:06.976Z,99602.33
2022-09-26T23:58:35.154Z,99606.88
